Terminal Aerodrome Forecast
Issued by NWS

Home | Current Version | Previous Version | Text Only | Print | Product List | Glossary On
Versions: 1 2 3 4 5 6 7 8 9 10 11 12 13 14 15 16 17 18 19 20 21 22 23 24 25 26 27 28
000
FTUS42 KMFL 310841 AAA
TAFFXE
TAF AMD
KFXE 310841Z 3109/0106 00000KT P6SM FEW200
     FM311400 08006KT P6SM SCT030 SCT060
     FM311700 08009KT P6SM VCTS SCT025CB BKN050
     FM010000 10003KT P6SM SCT050=

USA.gov is the U.S. government's official web portal to all federal, state and local government web resources and services.